In Rescue
 
Open Full Screen Window  High Contrast Mode
Wind Gusting 00 knots
05
May 20, 2019 2:31 PM CDT
Weather Information
Wind Direction
  040 °
Wind Speed
  05 kt (6 mph)
Wind Gust
  00 kt (0 mph)
Altimeter
30.16 in
Visibility
10 SM
Temperature
16° C
61° F
Dewpoint
01° C
34° F
Humidity
36%
1hr Rain Fall
00.00 in.
24hr Rain Fall
00.00 in.
Sky Condition
Clear
VFR

METAR KETH 201931Z AUTO 04005KT 10SM CLR 16/01 A3016 RMK AO2

FAA Disclaimer: The data displayed is for advisory purposes only and is not to be used for flight planning or operations.